Time;durP1;ratioP1;P1;durP2;ratioP2;P2;SDS_P1;SDS_P2;PMS_P1;PMS_P2;Temp;Humidity;BMP_temperature;BMP_pressure;BME280_temperature;BME280_humidity;BME280_pressure;Samples;Min_cycle;Max_cycle;Signal;HPM_P1;HPM_P2
2023/06/14 00:05:08;;;;;;;1.70;1.40;;;;;;;20.54;54.32;101407.91;20946172;28;20152;-70
2023/06/14 00:15:09;;;;;;;2.25;1.55;;;;;;;20.53;54.28;101400.78;20965070;28;20075;-71
2023/06/14 00:25:11;;;;;;;1.63;1.52;;;;;;;20.51;54.21;101406.31;20946081;28;20152;-71
2023/06/14 00:35:30;;;;;;;2.20;1.65;;;;;;;20.49;53.92;101410.19;20912561;28;20048;-71
2023/06/14 00:45:35;;;;;;;2.08;1.48;;;;;;;20.48;54.11;101411.19;21022837;28;20492;-71
2023/06/14 00:55:37;;;;;;;1.83;1.48;;;;;;;20.45;54.08;101409.59;20931773;28;20063;-71
2023/06/14 01:05:39;;;;;;;3.25;1.85;;;;;;;20.44;54.17;101413.28;20932917;28;20139;-71
2023/06/14 01:15:44;;;;;;;1.55;1.45;;;;;;;20.44;54.24;101424.13;20948031;28;20055;-71
2023/06/14 01:25:46;;;;;;;2.65;1.70;;;;;;;20.42;54.48;101418.84;20946359;28;20053;-70
2023/06/14 01:35:51;;;;;;;1.88;1.40;;;;;;;20.40;54.58;101425.38;20936750;28;20049;-71
2023/06/14 01:45:54;;;;;;;2.28;1.33;;;;;;;20.39;54.81;101429.97;20926746;28;20090;-70
2023/06/14 01:55:56;;;;;;;2.30;1.42;;;;;;;20.39;55.12;101429.09;20931021;28;20109;-71
2023/06/14 02:05:58;;;;;;;1.20;1.10;;;;;;;20.37;55.12;101431.94;20920188;28;20580;-71
2023/06/14 02:16:00;;;;;;;1.30;1.20;;;;;;;20.36;55.35;101429.38;20946765;28;20110;-71
2023/06/14 02:26:02;;;;;;;1.20;1.10;;;;;;;20.34;55.44;101429.53;20954540;28;20185;-71
2023/06/14 02:36:05;;;;;;;1.50;1.05;;;;;;;20.33;55.36;101430.53;20968362;28;20087;-70
2023/06/14 02:46:09;;;;;;;1.52;1.38;;;;;;;20.30;55.74;101436.19;20912958;28;20401;-71
2023/06/14 02:56:11;;;;;;;4.22;1.58;;;;;;;20.28;55.86;101438.16;20928971;28;20470;-74
2023/06/14 03:06:13;;;;;;;1.10;0.90;;;;;;;20.25;56.39;101447.44;20968555;28;20052;-74
2023/06/14 03:16:22;;;;;;;;;;;;;;;20.24;56.73;101458.38;20968455;28;20483;-74
2023/06/14 03:26:24;;;;;;;1.67;1.40;;;;;;;20.20;56.96;101468.63;20964347;28;20028;-73
2023/06/14 03:36:29;;;;;;;4.40;1.50;;;;;;;19.43;58.02;101478.88;20964437;28;20051;-73
2023/06/14 03:46:31;;;;;;;2.65;1.77;;;;;;;18.84;60.16;101473.03;20981294;28;20089;-73
2023/06/14 03:56:33;;;;;;;3.42;2.05;;;;;;;18.54;61.58;101477.28;20946080;28;20492;-72
2023/06/14 04:06:41;;;;;;;2.75;1.77;;;;;;;18.36;63.02;101488.59;21057371;28;20044;-72
2023/06/14 04:16:46;;;;;;;3.20;1.85;;;;;;;18.21;64.33;101487.16;21059979;28;20496;-72
2023/06/14 04:26:51;;;;;;;4.15;1.98;;;;;;;18.08;65.56;101511.53;21043114;28;20083;-72
2023/06/14 04:36:55;;;;;;;2.70;1.88;;;;;;;18.02;65.73;101510.19;21043274;28;20497;-72
2023/06/14 04:47:04;;;;;;;4.90;2.35;;;;;;;18.07;66.71;101524.13;21028129;28;20067;-72
2023/06/14 04:57:05;;;;;;;4.93;2.22;;;;;;;18.06;67.49;101540.44;20924093;28;20045;-72
2023/06/14 05:07:08;;;;;;;3.05;2.10;;;;;;;18.05;68.09;101544.13;20954341;28;20519;-72
2023/06/14 05:17:10;;;;;;;4.55;2.60;;;;;;;18.10;67.84;101548.13;20931313;28;20053;-71
2023/06/14 05:27:12;;;;;;;3.33;1.90;;;;;;;18.37;67.06;101559.56;20925143;28;20045;-73
2023/06/14 05:37:14;;;;;;;1.92;1.58;;;;;;;18.67;66.49;101555.34;20928312;28;20417;-73
2023/06/14 05:47:16;;;;;;;3.50;1.95;;;;;;;18.91;65.33;101576.75;20948445;28;20060;-72
2023/06/14 05:57:18;;;;;;;4.63;1.90;;;;;;;19.06;64.79;101565.72;20931230;28;20045;-77
2023/06/14 06:07:19;;;;;;;2.78;2.00;;;;;;;19.17;64.33;101583.69;20935533;28;20124;-74
2023/06/14 06:17:21;;;;;;;3.40;2.08;;;;;;;19.24;64.31;101583.06;20931742;28;20040;-72
2023/06/14 06:27:22;;;;;;;7.18;1.88;;;;;;;19.30;64.06;101583.53;20926742;28;20041;-72
2023/06/14 06:37:24;;;;;;;4.30;1.90;;;;;;;19.36;64.45;101589.28;20912209;28;20108;-71
2023/06/14 06:47:26;;;;;;;2.75;1.88;;;;;;;19.44;64.83;101601.25;20957050;28;20040;-71
2023/06/14 06:57:29;;;;;;;2.60;1.70;;;;;;;19.51;64.15;101608.72;20949568;28;20447;-70
2023/06/14 07:07:30;;;;;;;1.30;1.20;;;;;;;19.58;64.06;101616.31;20974000;28;20575;-72
2023/06/14 07:17:32;;;;;;;2.58;1.80;;;;;;;19.63;63.85;101627.56;20911642;28;20056;-72
2023/06/14 07:27:34;;;;;;;1.90;1.48;;;;;;;19.68;63.58;101637.00;20923598;28;20497;-71
2023/06/14 07:37:36;;;;;;;1.83;1.38;;;;;;;19.76;63.29;101639.03;20939180;28;20055;-70
2023/06/14 07:47:37;;;;;;;2.70;1.70;;;;;;;19.82;63.30;101630.41;20936839;28;20045;-71
2023/06/14 07:57:39;;;;;;;1.25;1.13;;;;;;;19.89;62.88;101627.19;20955192;28;20049;-71
2023/06/14 08:07:42;;;;;;;2.00;1.30;;;;;;;19.98;62.71;101626.44;20945092;28;20041;-71
2023/06/14 08:17:44;;;;;;;1.33;1.10;;;;;;;20.09;62.58;101633.59;20994769;28;20060;-71
2023/06/14 08:27:46;;;;;;;2.15;1.23;;;;;;;20.24;62.21;101639.50;20980780;28;20412;-70
2023/06/14 08:37:48;;;;;;;1.85;1.20;;;;;;;20.34;61.72;101629.63;20990152;28;20087;-72
2023/06/14 08:47:57;;;;;;;2.03;1.23;;;;;;;20.43;61.54;101631.50;20979421;28;20059;-73
2023/06/14 08:58:01;;;;;;;2.40;1.40;;;;;;;20.51;60.96;101619.16;20972625;28;20094;-72
2023/06/14 09:08:02;;;;;;;1.88;1.20;;;;;;;20.55;60.91;101623.28;20978003;28;20140;-72
2023/06/14 09:18:07;;;;;;;1.40;1.25;;;;;;;20.58;60.94;101615.78;20971016;28;20412;-72
2023/06/14 09:28:10;;;;;;;1.65;1.05;;;;;;;20.62;60.98;101629.88;20960997;28;20052;-73
2023/06/14 09:38:11;;;;;;;0.93;0.90;;;;;;;20.66;60.41;101615.06;20952695;28;20041;-72
2023/06/14 09:48:17;;;;;;;0.82;0.80;;;;;;;20.70;60.27;101635.44;20931336;28;20163;-72
2023/06/14 09:58:21;;;;;;;1.30;1.00;;;;;;;20.75;59.78;101628.75;20938627;28;20090;-73
2023/06/14 10:08:28;;;;;;;1.02;0.90;;;;;;;20.79;59.80;101616.72;20926164;28;20124;-72
2023/06/14 10:19:00;;;;;;;2.30;0.82;;;;;;;20.82;59.62;101611.88;20926697;28;20053;-72
2023/06/14 10:29:07;;;;;;;1.45;1.33;;;;;;;20.84;59.77;101611.75;20952981;28;20124;-71
2023/06/14 10:39:16;;;;;;;2.00;1.10;;;;;;;20.86;59.26;101609.75;20938349;28;20079;-71
2023/06/14 10:49:19;;;;;;;3.17;1.10;;;;;;;20.82;59.71;101605.63;20950704;28;20053;-72
2023/06/14 10:59:21;;;;;;;1.60;1.02;;;;;;;20.77;59.34;101597.88;20969664;28;20044;-72
2023/06/14 11:09:37;;;;;;;2.38;1.30;;;;;;;20.77;60.22;101605.13;20958540;28;20055;-72
2023/06/14 11:19:39;;;;;;;2.63;1.20;;;;;;;20.78;60.92;101582.53;20948731;28;20608;-72
2023/06/14 11:29:48;;;;;;;2.72;1.45;;;;;;;20.78;61.70;101579.81;20996379;28;20041;-72
2023/06/14 11:39:50;;;;;;;2.08;1.00;;;;;;;20.81;61.57;101574.16;20932977;28;20051;-73
2023/06/14 11:49:51;;;;;;;1.90;1.00;;;;;;;20.83;61.50;101582.97;20986751;28;20106;-72
2023/06/14 11:59:55;;;;;;;1.20;1.10;;;;;;;20.86;61.86;101578.13;20941211;28;20165;-73
2023/06/14 12:09:56;;;;;;;1.13;1.02;;;;;;;20.90;62.04;101567.91;20947213;28;20129;-74
2023/06/14 12:19:58;;;;;;;1.27;0.88;;;;;;;20.92;62.38;101584.84;21020009;28;20051;-74
2023/06/14 12:30:01;;;;;;;1.08;0.98;;;;;;;20.92;61.98;101568.59;20957153;28;20068;-74
2023/06/14 12:40:05;;;;;;;1.48;1.00;;;;;;;20.91;62.64;101557.91;20919646;28;20111;-73
2023/06/14 12:50:07;;;;;;;1.60;1.00;;;;;;;20.98;62.71;101568.03;20970265;28;20575;-73
2023/06/14 13:00:09;;;;;;;2.08;1.10;;;;;;;21.00;62.33;101571.47;20928971;28;20043;-73
2023/06/14 13:10:12;;;;;;;1.77;1.30;;;;;;;21.00;61.91;101568.75;20935264;28;20054;-69
2023/06/14 13:20:16;;;;;;;3.08;1.45;;;;;;;21.01;62.54;101575.03;20925344;28;20128;-73
2023/06/14 13:30:20;;;;;;;1.35;1.20;;;;;;;21.00;62.22;101573.31;20957371;28;20521;-77
2023/06/14 13:40:22;;;;;;;1.90;1.23;;;;;;;21.01;62.21;101578.59;20951232;28;20052;-73
2023/06/14 13:50:24;;;;;;;2.28;1.48;;;;;;;21.04;61.67;101584.72;20942935;28;20110;-72
2023/06/14 14:00:26;;;;;;;2.83;1.48;;;;;;;21.08;62.18;101578.00;20924853;28;20048;-73
2023/06/14 14:10:28;;;;;;;2.08;1.40;;;;;;;21.10;62.20;101562.50;21009218;28;20072;-73
2023/06/14 14:20:30;;;;;;;1.20;1.10;;;;;;;21.07;62.22;101557.34;20942585;28;20059;-72
2023/06/14 14:30:32;;;;;;;2.92;1.50;;;;;;;21.16;62.27;101564.63;20926168;28;20516;-72
2023/06/14 14:40:34;;;;;;;2.28;1.20;;;;;;;21.19;62.39;101553.50;20962562;28;20139;-83
2023/06/14 14:50:36;;;;;;;1.23;1.13;;;;;;;21.24;63.35;101550.38;20931521;28;20057;-76
2023/06/14 15:00:38;;;;;;;1.48;1.10;;;;;;;21.26;65.22;101546.56;20931800;28;20528;-78
2023/06/14 15:10:41;;;;;;;1.40;1.13;;;;;;;21.27;66.80;101534.72;20966746;28;20048;-81
2023/06/14 15:20:43;;;;;;;2.67;1.70;;;;;;;21.43;70.06;101546.81;20961043;28;20044;-75
2023/06/14 15:30:44;;;;;;;2.13;1.52;;;;;;;21.52;71.47;101545.94;20942627;28;20049;-75
2023/06/14 15:40:46;;;;;;;2.03;1.40;;;;;;;21.51;70.27;101546.94;20932650;28;20048;-83
2023/06/14 15:50:49;;;;;;;2.58;1.50;;;;;;;21.47;68.79;101548.22;20910793;28;20071;-74
2023/06/14 16:00:51;;;;;;;3.80;1.30;;;;;;;21.44;68.05;101543.09;20943302;28;20478;-78
2023/06/14 16:10:53;;;;;;;1.65;1.30;;;;;;;21.44;66.88;101537.69;20909165;28;20599;-75
2023/06/14 16:20:55;;;;;;;1.55;1.35;;;;;;;21.43;66.39;101530.56;20912150;28;20510;-71
2023/06/14 16:30:56;;;;;;;1.38;1.25;;;;;;;21.37;65.89;101531.13;20979054;28;20128;-72
2023/06/14 16:40:59;;;;;;;2.72;1.85;;;;;;;21.31;64.65;101532.56;20959379;28;20049;-72
2023/06/14 16:51:01;;;;;;;1.67;1.42;;;;;;;21.28;63.67;101533.72;20979958;28;20123;-72
2023/06/14 17:01:03;;;;;;;1.60;1.30;;;;;;;21.24;63.36;101536.84;20969803;28;20084;-72
2023/06/14 17:11:04;;;;;;;1.98;1.60;;;;;;;21.22;63.24;101542.41;20972413;28;20417;-72
2023/06/14 17:21:06;;;;;;;3.13;1.60;;;;;;;21.21;62.72;101547.97;20963295;28;20057;-72
2023/06/14 17:31:08;;;;;;;2.10;1.45;;;;;;;21.17;62.03;101550.09;20966772;28;20052;-72
2023/06/14 17:41:09;;;;;;;2.22;1.70;;;;;;;21.14;61.88;101556.66;20950841;28;20040;-72
2023/06/14 17:51:11;;;;;;;1.70;1.50;;;;;;;21.13;61.77;101559.50;20951886;28;20533;-72
2023/06/14 18:01:16;;;;;;;2.35;1.40;;;;;;;21.10;61.79;101557.06;20958500;28;20036;-72
2023/06/14 18:11:19;;;;;;;2.47;1.75;;;;;;;21.07;61.90;101562.78;20951809;28;20106;-72
2023/06/14 18:21:21;;;;;;;1.58;1.48;;;;;;;21.00;61.64;101568.75;20932124;28;20044;-72
2023/06/14 18:31:22;;;;;;;1.60;1.50;;;;;;;21.05;61.86;101575.59;20942170;28;20424;-72
2023/06/14 18:41:25;;;;;;;1.60;1.50;;;;;;;21.02;61.86;101576.75;20944910;28;20048;-72
2023/06/14 18:51:27;;;;;;;1.60;1.50;;;;;;;21.00;61.73;101594.97;20957087;28;20704;-72
2023/06/14 19:01:29;;;;;;;2.35;1.67;;;;;;;20.98;61.61;101588.81;20939578;28;20590;-72
2023/06/14 19:11:31;;;;;;;1.95;1.73;;;;;;;20.95;61.94;101605.34;20939177;28;20164;-72
2023/06/14 19:21:32;;;;;;;1.85;1.75;;;;;;;20.93;62.13;101620.88;20946394;28;20049;-72
2023/06/14 19:31:34;;;;;;;1.92;1.73;;;;;;;20.90;62.25;101632.84;20942287;28;20499;-72
2023/06/14 19:41:35;;;;;;;1.98;1.75;;;;;;;20.89;62.56;101635.69;20971437;28;20668;-72
2023/06/14 19:51:37;;;;;;;1.88;1.77;;;;;;;20.87;62.76;101660.19;20945097;28;20626;-72
2023/06/14 20:01:39;;;;;;;2.05;1.85;;;;;;;20.87;62.90;101665.59;20956672;28;20056;-72
2023/06/14 20:11:41;;;;;;;2.80;2.15;;;;;;;20.84;63.02;101676.72;20962034;28;20611;-72
2023/06/14 20:21:42;;;;;;;1.90;1.80;;;;;;;20.82;63.20;101682.25;20958985;28;20127;-72
2023/06/14 20:31:44;;;;;;;2.20;1.98;;;;;;;20.81;63.25;101701.34;20953329;28;20075;-72
2023/06/14 20:41:46;;;;;;;2.20;2.00;;;;;;;20.79;63.37;101697.91;20952785;28;20386;-72
2023/06/14 20:51:47;;;;;;;2.17;1.98;;;;;;;20.76;63.57;101701.69;20954716;28;20044;-72
2023/06/14 21:01:49;;;;;;;2.90;2.00;;;;;;;20.74;63.63;101709.09;20925482;28;20101;-72
2023/06/14 21:11:50;;;;;;;2.40;2.20;;;;;;;20.72;63.73;101711.94;20949602;28;20049;-72
2023/06/14 21:21:54;;;;;;;2.30;2.10;;;;;;;20.71;63.83;101715.63;20932382;28;20044;-72
2023/06/14 21:31:56;;;;;;;2.13;1.93;;;;;;;20.70;63.95;101724.72;20949916;28;20059;-72
2023/06/14 21:41:57;;;;;;;2.20;2.00;;;;;;;20.68;63.75;101726.72;20975889;28;20084;-72
2023/06/14 21:51:59;;;;;;;2.17;1.80;;;;;;;20.67;63.86;101718.75;20988065;28;20040;-72
2023/06/14 22:02:01;;;;;;;2.50;2.08;;;;;;;20.66;63.78;101714.34;20987046;28;20048;-72
2023/06/14 22:12:03;;;;;;;2.47;2.00;;;;;;;20.63;63.69;101728.97;20987327;28;20743;-72
2023/06/14 22:22:05;;;;;;;1.98;1.77;;;;;;;20.62;63.68;101727.25;20985863;28;20106;-72
2023/06/14 22:32:08;;;;;;;3.53;2.30;;;;;;;20.61;63.58;101720.13;21007159;28;20124;-72
2023/06/14 22:42:13;;;;;;;2.42;2.22;;;;;;;20.55;63.57;101721.56;21068592;28;20046;-72
2023/06/14 22:52:15;;;;;;;2.03;1.77;;;;;;;20.58;63.54;101715.88;21067851;28;20056;-72
2023/06/14 23:02:19;;;;;;;1.80;1.70;;;;;;;20.54;63.36;101721.66;21067867;28;20203;-72
2023/06/14 23:12:21;;;;;;;1.65;1.50;;;;;;;20.54;63.31;101714.41;21066578;28;20127;-72
2023/06/14 23:22:22;;;;;;;2.63;1.75;;;;;;;20.53;63.22;101719.97;21066330;28;20162;-72
2023/06/14 23:32:24;;;;;;;3.38;1.83;;;;;;;20.51;63.10;101724.66;21055925;28;20048;-72
2023/06/14 23:42:29;;;;;;;2.53;1.40;;;;;;;20.50;63.00;101725.63;21065677;28;20052;-72
2023/06/14 23:52:31;;;;;;;2.58;2.10;;;;;;;20.48;62.89;101716.81;21065993;28;20202;-72
